Milwaukee, Wisconsin
Traffic Map
Current Weather Conditions
Milwaukee, Wisconsin
Overcast Haze
Overcast
51°
Feels Like: 51°
Wind Chill: 51° Ceiling: 500
Heat Index: 51° Visibility: 6mi
Dew Point: 49° Wind: 6mph
Humidity: 92% Direction: 280° (W)
Pressure: 30.04in Gusts: 0mph
Raw Report DataKMKE 240852Z 28005KT 6SM BR OVC005 11/09 A3004 RMK AO2 SLP172 T01060094 52001
Traffic Incident Summary
Active as of:
Severity:
Category:
InformationThere was an issue retrieving the traffic information for this location. Please try a different location or try again shortly.
Advertisements
Track Severe Weather on mobile